sensor_id;sensor_type;location;lat;lon;timestamp;temperature;humidity
47090;DHT22;32840;52.516;13.294;2022-08-21T10:20:12;23.40;94.90
47090;DHT22;32840;52.516;13.294;2022-08-21T10:23:21;23.50;94.50
47090;DHT22;32840;52.516;13.294;2022-08-21T10:26:26;23.60;93.80
47090;DHT22;32840;52.516;13.294;2022-08-21T10:29:37;23.70;92.30
47090;DHT22;32840;52.516;13.294;2022-08-21T10:38:33;23.80;84.20
47090;DHT22;32840;52.516;13.294;2022-08-21T10:47:41;23.80;79.90
47090;DHT22;32840;52.516;13.294;2022-08-21T10:56:40;23.70;76.80
47090;DHT22;32840;52.516;13.294;2022-08-21T11:02:33;23.80;75.20
47090;DHT22;32840;52.516;13.294;2022-08-21T11:05:33;23.90;75.90
47090;DHT22;32840;52.516;13.294;2022-08-21T11:11:10;24.00;74.50
47090;DHT22;32840;52.516;13.294;2022-08-21T11:17:22;24.20;73.50
47090;DHT22;32840;52.516;13.294;2022-08-21T11:23:11;24.20;71.40
47090;DHT22;32840;52.516;13.294;2022-08-21T11:26:02;24.10;72.20
47090;DHT22;32840;52.516;13.294;2022-08-21T11:28:55;24.20;73.30
47090;DHT22;32840;52.516;13.294;2022-08-21T11:34:49;24.10;70.20
47090;DHT22;32840;52.516;13.294;2022-08-21T11:37:46;24.20;69.70
47090;DHT22;32840;52.516;13.294;2022-08-21T11:43:33;24.20;69.00
47090;DHT22;32840;52.516;13.294;2022-08-21T11:52:34;24.10;66.10
47090;DHT22;32840;52.516;13.294;2022-08-21T12:01:05;24.30;64.80
47090;DHT22;32840;52.516;13.294;2022-08-21T12:04:01;24.20;64.80
47090;DHT22;32840;52.516;13.294;2022-08-21T12:06:46;24.20;66.80
47090;DHT22;32840;52.516;13.294;2022-08-21T12:09:34;24.30;67.70
47090;DHT22;32840;52.516;13.294;2022-08-21T12:12:27;24.30;68.40
47090;DHT22;32840;52.516;13.294;2022-08-21T12:15:23;24.30;66.80
47090;DHT22;32840;52.516;13.294;2022-08-21T12:18:29;24.40;67.00
47090;DHT22;32840;52.516;13.294;2022-08-21T12:21:26;24.40;66.90
47090;DHT22;32840;52.516;13.294;2022-08-21T12:24:16;24.50;63.70
47090;DHT22;32840;52.516;13.294;2022-08-21T12:30:23;24.50;63.20
47090;DHT22;32840;52.516;13.294;2022-08-21T12:33:34;24.50;64.90
47090;DHT22;32840;52.516;13.294;2022-08-21T12:36:24;24.50;63.20
47090;DHT22;32840;52.516;13.294;2022-08-21T12:39:13;24.50;63.40
47090;DHT22;32840;52.516;13.294;2022-08-21T12:42:06;24.50;63.80
47090;DHT22;32840;52.516;13.294;2022-08-21T12:45:00;24.50;63.30
47090;DHT22;32840;52.516;13.294;2022-08-21T12:47:56;24.50;64.20
47090;DHT22;32840;52.516;13.294;2022-08-21T12:51:04;24.50;64.80
47090;DHT22;32840;52.516;13.294;2022-08-21T12:53:52;24.40;63.90
47090;DHT22;32840;52.516;13.294;2022-08-21T12:56:37;24.40;64.60
47090;DHT22;32840;52.516;13.294;2022-08-21T12:59:23;24.40;64.30
47090;DHT22;32840;52.516;13.294;2022-08-21T13:02:18;24.40;65.10
47090;DHT22;32840;52.516;13.294;2022-08-21T13:05:06;24.40;65.40
47090;DHT22;32840;52.516;13.294;2022-08-21T13:07:52;24.50;66.80
47090;DHT22;32840;52.516;13.294;2022-08-21T13:10:37;24.50;66.70
47090;DHT22;32840;52.516;13.294;2022-08-21T13:13:25;24.50;67.30
47090;DHT22;32840;52.516;13.294;2022-08-21T13:16:11;24.50;68.10
47090;DHT22;32840;52.516;13.294;2022-08-21T13:18:57;24.50;67.40
47090;DHT22;32840;52.516;13.294;2022-08-21T13:21:43;24.40;67.70
47090;DHT22;32840;52.516;13.294;2022-08-21T13:24:33;24.40;67.80
47090;DHT22;32840;52.516;13.294;2022-08-21T13:27:23;24.40;68.60
47090;DHT22;32840;52.516;13.294;2022-08-21T13:33:00;24.40;67.90
47090;DHT22;32840;52.516;13.294;2022-08-21T13:38:42;24.40;69.40
47090;DHT22;32840;52.516;13.294;2022-08-21T13:41:31;24.40;67.70
47090;DHT22;32840;52.516;13.294;2022-08-21T13:47:13;24.60;69.30
47090;DHT22;32840;52.516;13.294;2022-08-21T13:49:59;24.60;67.20
47090;DHT22;32840;52.516;13.294;2022-08-21T13:52:49;24.50;67.40
47090;DHT22;32840;52.516;13.294;2022-08-21T13:55:42;24.50;67.40
47090;DHT22;32840;52.516;13.294;2022-08-21T13:58:47;24.50;68.00
47090;DHT22;32840;52.516;13.294;2022-08-21T14:01:51;24.40;67.60
47090;DHT22;32840;52.516;13.294;2022-08-21T14:04:56;24.40;67.90
47090;DHT22;32840;52.516;13.294;2022-08-21T14:07:42;24.30;68.10
47090;DHT22;32840;52.516;13.294;2022-08-21T14:10:28;24.30;68.90
47090;DHT22;32840;52.516;13.294;2022-08-21T14:16:27;24.30;68.90
47090;DHT22;32840;52.516;13.294;2022-08-21T14:19:22;24.40;68.30
47090;DHT22;32840;52.516;13.294;2022-08-21T14:25:13;24.60;68.90
47090;DHT22;32840;52.516;13.294;2022-08-21T14:31:19;24.70;67.90
47090;DHT22;32840;52.516;13.294;2022-08-21T14:34:04;24.70;66.50
47090;DHT22;32840;52.516;13.294;2022-08-21T14:36:50;24.80;66.30
47090;DHT22;32840;52.516;13.294;2022-08-21T14:39:35;24.80;66.30
47090;DHT22;32840;52.516;13.294;2022-08-21T14:42:20;24.80;66.60
47090;DHT22;32840;52.516;13.294;2022-08-21T14:45:14;24.90;67.00
47090;DHT22;32840;52.516;13.294;2022-08-21T14:47:59;24.90;67.30
47090;DHT22;32840;52.516;13.294;2022-08-21T14:50:44;24.90;67.30
47090;DHT22;32840;52.516;13.294;2022-08-21T14:53:29;24.90;67.00
47090;DHT22;32840;52.516;13.294;2022-08-21T14:56:15;24.90;67.50
47090;DHT22;32840;52.516;13.294;2022-08-21T14:59:06;24.90;67.30
47090;DHT22;32840;52.516;13.294;2022-08-21T15:01:51;24.90;67.60
47090;DHT22;32840;52.516;13.294;2022-08-21T15:04:36;24.80;67.10
47090;DHT22;32840;52.516;13.294;2022-08-21T15:07:21;24.80;67.50
47090;DHT22;32840;52.516;13.294;2022-08-21T15:10:07;24.70;67.50
47090;DHT22;32840;52.516;13.294;2022-08-21T15:12:52;24.70;67.70
47090;DHT22;32840;52.516;13.294;2022-08-21T15:15:40;24.60;67.50
47090;DHT22;32840;52.516;13.294;2022-08-21T15:18:27;24.50;67.30
47090;DHT22;32840;52.516;13.294;2022-08-21T15:21:13;24.50;67.40
47090;DHT22;32840;52.516;13.294;2022-08-21T15:23:58;24.40;67.80
47090;DHT22;32840;52.516;13.294;2022-08-21T15:26:43;24.40;68.30
47090;DHT22;32840;52.516;13.294;2022-08-21T15:29:30;24.40;68.30
47090;DHT22;32840;52.516;13.294;2022-08-21T15:32:24;24.30;68.30
47090;DHT22;32840;52.516;13.294;2022-08-21T15:35:09;24.30;67.90
47090;DHT22;32840;52.516;13.294;2022-08-21T15:37:54;24.30;68.30
47090;DHT22;32840;52.516;13.294;2022-08-21T15:40:40;24.30;68.10
47090;DHT22;32840;52.516;13.294;2022-08-21T15:43:27;24.20;68.90
47090;DHT22;32840;52.516;13.294;2022-08-21T15:46:14;24.20;68.90
47090;DHT22;32840;52.516;13.294;2022-08-21T15:48:59;24.20;69.40
47090;DHT22;32840;52.516;13.294;2022-08-21T15:51:44;24.20;69.80
47090;DHT22;32840;52.516;13.294;2022-08-21T15:54:29;24.20;70.20
47090;DHT22;32840;52.516;13.294;2022-08-21T15:57:17;24.20;69.80
47090;DHT22;32840;52.516;13.294;2022-08-21T16:00:12;24.10;69.80
47090;DHT22;32840;52.516;13.294;2022-08-21T16:02:59;24.10;69.80
47090;DHT22;32840;52.516;13.294;2022-08-21T16:05:44;24.10;70.50
47090;DHT22;32840;52.516;13.294;2022-08-21T16:08:29;24.10;70.60
47090;DHT22;32840;52.516;13.294;2022-08-21T16:11:15;24.00;71.20
47090;DHT22;32840;52.516;13.294;2022-08-21T16:14:00;24.00;71.10
47090;DHT22;32840;52.516;13.294;2022-08-21T16:16:45;24.00;71.00
47090;DHT22;32840;52.516;13.294;2022-08-21T16:19:30;24.00;71.10
47090;DHT22;32840;52.516;13.294;2022-08-21T16:22:15;24.00;71.50
47090;DHT22;32840;52.516;13.294;2022-08-21T16:25:00;23.90;71.60
47090;DHT22;32840;52.516;13.294;2022-08-21T16:27:48;23.90;71.50
47090;DHT22;32840;52.516;13.294;2022-08-21T16:30:34;23.90;71.90
47090;DHT22;32840;52.516;13.294;2022-08-21T16:34:00;23.90;72.50
47090;DHT22;32840;52.516;13.294;2022-08-21T16:36:38;23.90;72.80
47090;DHT22;32840;52.516;13.294;2022-08-21T16:39:23;23.90;71.60
47090;DHT22;32840;52.516;13.294;2022-08-21T16:42:12;23.90;72.60
47090;DHT22;32840;52.516;13.294;2022-08-21T16:44:57;23.90;72.10
47090;DHT22;32840;52.516;13.294;2022-08-21T16:47:43;23.90;72.30
47090;DHT22;32840;52.516;13.294;2022-08-21T16:50:28;23.90;71.70
47090;DHT22;32840;52.516;13.294;2022-08-21T16:53:13;23.90;72.30
47090;DHT22;32840;52.516;13.294;2022-08-21T16:55:58;23.90;71.90
47090;DHT22;32840;52.516;13.294;2022-08-21T16:58:46;23.80;70.10
47090;DHT22;32840;52.516;13.294;2022-08-21T17:01:32;23.90;71.50
47090;DHT22;32840;52.516;13.294;2022-08-21T17:04:18;23.80;71.50
47090;DHT22;32840;52.516;13.294;2022-08-21T17:07:03;23.80;70.40
47090;DHT22;32840;52.516;13.294;2022-08-21T17:09:48;23.70;71.10
47090;DHT22;32840;52.516;13.294;2022-08-21T17:12:34;23.70;71.20
47090;DHT22;32840;52.516;13.294;2022-08-21T17:15:32;23.70;69.30
47090;DHT22;32840;52.516;13.294;2022-08-21T17:18:19;23.60;69.30
47090;DHT22;32840;52.516;13.294;2022-08-21T17:21:05;23.60;69.70
47090;DHT22;32840;52.516;13.294;2022-08-21T17:23:49;23.60;70.20
47090;DHT22;32840;52.516;13.294;2022-08-21T17:26:35;23.50;70.50
47090;DHT22;32840;52.516;13.294;2022-08-21T17:29:28;23.50;70.10
47090;DHT22;32840;52.516;13.294;2022-08-21T17:32:14;23.50;70.40
47090;DHT22;32840;52.516;13.294;2022-08-21T17:35:02;23.40;71.50
47090;DHT22;32840;52.516;13.294;2022-08-21T17:37:47;23.40;72.20
47090;DHT22;32840;52.516;13.294;2022-08-21T17:40:32;23.40;71.50
47090;DHT22;32840;52.516;13.294;2022-08-21T17:43:17;23.40;72.30
47090;DHT22;32840;52.516;13.294;2022-08-21T17:46:01;23.40;72.40
47090;DHT22;32840;52.516;13.294;2022-08-21T17:48:47;23.40;72.90
47090;DHT22;32840;52.516;13.294;2022-08-21T17:51:32;23.30;73.50
47090;DHT22;32840;52.516;13.294;2022-08-21T17:54:16;23.30;73.30
47090;DHT22;32840;52.516;13.294;2022-08-21T17:57:02;23.30;73.40
47090;DHT22;32840;52.516;13.294;2022-08-21T17:59:47;23.30;73.50
47090;DHT22;32840;52.516;13.294;2022-08-21T18:02:32;23.30;73.50
47090;DHT22;32840;52.516;13.294;2022-08-21T18:05:17;23.30;73.70
47090;DHT22;32840;52.516;13.294;2022-08-21T18:08:03;23.20;73.90
47090;DHT22;32840;52.516;13.294;2022-08-21T18:10:49;23.20;74.10
47090;DHT22;32840;52.516;13.294;2022-08-21T18:13:36;23.10;74.20
47090;DHT22;32840;52.516;13.294;2022-08-21T18:16:23;23.10;74.50
47090;DHT22;32840;52.516;13.294;2022-08-21T18:19:11;23.10;75.00
47090;DHT22;32840;52.516;13.294;2022-08-21T18:21:59;23.00;75.10
47090;DHT22;32840;52.516;13.294;2022-08-21T18:24:44;23.00;75.90
47090;DHT22;32840;52.516;13.294;2022-08-21T18:27:29;22.90;75.90
47090;DHT22;32840;52.516;13.294;2022-08-21T18:30:18;22.90;76.10
47090;DHT22;32840;52.516;13.294;2022-08-21T18:33:04;22.90;76.30
47090;DHT22;32840;52.516;13.294;2022-08-21T18:35:49;22.90;76.70
47090;DHT22;32840;52.516;13.294;2022-08-21T18:38:34;22.80;76.60
47090;DHT22;32840;52.516;13.294;2022-08-21T18:41:19;22.80;76.90
47090;DHT22;32840;52.516;13.294;2022-08-21T18:44:04;22.80;77.30
47090;DHT22;32840;52.516;13.294;2022-08-21T18:46:54;22.70;77.80
47090;DHT22;32840;52.516;13.294;2022-08-21T18:49:40;22.70;77.80
47090;DHT22;32840;52.516;13.294;2022-08-21T18:52:24;22.70;78.10
47090;DHT22;32840;52.516;13.294;2022-08-21T18:55:12;22.70;78.60
47090;DHT22;32840;52.516;13.294;2022-08-21T18:57:57;22.60;78.70
47090;DHT22;32840;52.516;13.294;2022-08-21T19:00:45;22.60;79.30
47090;DHT22;32840;52.516;13.294;2022-08-21T19:03:32;22.60;79.60
47090;DHT22;32840;52.516;13.294;2022-08-21T19:06:17;22.50;80.40
47090;DHT22;32840;52.516;13.294;2022-08-21T19:09:07;22.50;80.60
47090;DHT22;32840;52.516;13.294;2022-08-21T19:11:53;22.50;81.00
47090;DHT22;32840;52.516;13.294;2022-08-21T19:14:38;22.50;81.50
47090;DHT22;32840;52.516;13.294;2022-08-21T19:17:23;22.50;82.20
47090;DHT22;32840;52.516;13.294;2022-08-21T19:20:17;22.50;82.60
47090;DHT22;32840;52.516;13.294;2022-08-21T19:23:04;22.40;82.90
47090;DHT22;32840;52.516;13.294;2022-08-21T19:25:52;22.40;83.10
47090;DHT22;32840;52.516;13.294;2022-08-21T19:28:46;22.40;83.50
47090;DHT22;32840;52.516;13.294;2022-08-21T19:31:33;22.30;84.00
47090;DHT22;32840;52.516;13.294;2022-08-21T19:34:28;22.30;84.30
47090;DHT22;32840;52.516;13.294;2022-08-21T19:37:13;22.20;84.50
47090;DHT22;32840;52.516;13.294;2022-08-21T19:39:59;22.20;84.80
47090;DHT22;32840;52.516;13.294;2022-08-21T19:42:46;22.20;85.30
47090;DHT22;32840;52.516;13.294;2022-08-21T19:45:34;22.20;85.70
47090;DHT22;32840;52.516;13.294;2022-08-21T19:48:19;22.10;86.40
47090;DHT22;32840;52.516;13.294;2022-08-21T19:51:04;22.10;86.80
47090;DHT22;32840;52.516;13.294;2022-08-21T19:53:51;22.10;87.10
47090;DHT22;32840;52.516;13.294;2022-08-21T19:56:37;22.10;87.60
47090;DHT22;32840;52.516;13.294;2022-08-21T19:59:23;22.00;88.10
47090;DHT22;32840;52.516;13.294;2022-08-21T20:02:10;22.00;88.60
47090;DHT22;32840;52.516;13.294;2022-08-21T20:04:55;22.00;88.90
47090;DHT22;32840;52.516;13.294;2022-08-21T20:07:40;22.00;89.30
47090;DHT22;32840;52.516;13.294;2022-08-21T20:10:25;22.00;89.50
47090;DHT22;32840;52.516;13.294;2022-08-21T20:13:10;22.00;89.80
47090;DHT22;32840;52.516;13.294;2022-08-21T20:15:55;21.90;89.70
47090;DHT22;32840;52.516;13.294;2022-08-21T20:18:40;21.90;90.10
47090;DHT22;32840;52.516;13.294;2022-08-21T20:21:26;21.90;89.60
47090;DHT22;32840;52.516;13.294;2022-08-21T20:24:12;21.80;90.10
47090;DHT22;32840;52.516;13.294;2022-08-21T20:26:58;21.80;90.20
47090;DHT22;32840;52.516;13.294;2022-08-21T20:29:44;21.90;90.20
47090;DHT22;32840;52.516;13.294;2022-08-21T20:32:28;21.90;90.10
47090;DHT22;32840;52.516;13.294;2022-08-21T20:35:13;21.80;90.10
47090;DHT22;32840;52.516;13.294;2022-08-21T20:37:59;21.80;90.10
47090;DHT22;32840;52.516;13.294;2022-08-21T20:40:47;21.80;90.20
47090;DHT22;32840;52.516;13.294;2022-08-21T20:43:34;21.70;90.20
47090;DHT22;32840;52.516;13.294;2022-08-21T20:46:23;21.70;90.10
47090;DHT22;32840;52.516;13.294;2022-08-21T20:49:13;21.70;89.90
47090;DHT22;32840;52.516;13.294;2022-08-21T20:51:59;21.70;90.00
47090;DHT22;32840;52.516;13.294;2022-08-21T20:55:03;21.70;88.20
47090;DHT22;32840;52.516;13.294;2022-08-21T20:58:07;21.60;87.80
47090;DHT22;32840;52.516;13.294;2022-08-21T21:00:55;21.60;86.40
47090;DHT22;32840;52.516;13.294;2022-08-21T21:03:46;21.60;87.30
47090;DHT22;32840;52.516;13.294;2022-08-21T21:06:34;21.60;87.30
47090;DHT22;32840;52.516;13.294;2022-08-21T21:09:30;21.60;85.70
47090;DHT22;32840;52.516;13.294;2022-08-21T21:12:27;21.50;85.50
47090;DHT22;32840;52.516;13.294;2022-08-21T21:15:23;21.60;84.70
47090;DHT22;32840;52.516;13.294;2022-08-21T21:18:15;21.50;84.80
47090;DHT22;32840;52.516;13.294;2022-08-21T21:21:26;21.50;84.10
47090;DHT22;32840;52.516;13.294;2022-08-21T21:24:18;21.50;84.20
47090;DHT22;32840;52.516;13.294;2022-08-21T21:27:12;21.50;84.00
47090;DHT22;32840;52.516;13.294;2022-08-21T21:32:49;21.40;84.20
47090;DHT22;32840;52.516;13.294;2022-08-21T21:35:46;21.40;84.20
47090;DHT22;32840;52.516;13.294;2022-08-21T21:38:35;21.40;84.20
47090;DHT22;32840;52.516;13.294;2022-08-21T21:41:48;21.40;84.70
47090;DHT22;32840;52.516;13.294;2022-08-21T21:48:05;21.30;85.90
47090;DHT22;32840;52.516;13.294;2022-08-21T21:51:01;21.30;86.30
47090;DHT22;32840;52.516;13.294;2022-08-21T22:00:09;21.20;87.20
47090;DHT22;32840;52.516;13.294;2022-08-21T22:06:16;21.20;87.80
47090;DHT22;32840;52.516;13.294;2022-08-21T22:15:31;21.10;88.90
47090;DHT22;32840;52.516;13.294;2022-08-21T22:18:20;21.10;89.20
47090;DHT22;32840;52.516;13.294;2022-08-21T22:21:14;21.10;89.60
47090;DHT22;32840;52.516;13.294;2022-08-21T22:24:12;21.00;89.60
47090;DHT22;32840;52.516;13.294;2022-08-21T22:27:01;21.00;89.80
47090;DHT22;32840;52.516;13.294;2022-08-21T22:29:53;21.00;89.90
47090;DHT22;32840;52.516;13.294;2022-08-21T22:32:41;21.00;89.60
47090;DHT22;32840;52.516;13.294;2022-08-21T22:35:31;21.00;90.10
47090;DHT22;32840;52.516;13.294;2022-08-21T22:38:31;21.00;90.20
47090;DHT22;32840;52.516;13.294;2022-08-21T22:41:22;21.00;90.30
47090;DHT22;32840;52.516;13.294;2022-08-21T22:44:18;21.00;90.50
47090;DHT22;32840;52.516;13.294;2022-08-21T22:47:03;21.00;90.70
47090;DHT22;32840;52.516;13.294;2022-08-21T22:49:49;21.00;91.00
47090;DHT22;32840;52.516;13.294;2022-08-21T22:52:36;21.00;91.10
47090;DHT22;32840;52.516;13.294;2022-08-21T22:55:41;21.00;91.40
47090;DHT22;32840;52.516;13.294;2022-08-21T22:58:37;21.00;91.60
47090;DHT22;32840;52.516;13.294;2022-08-21T23:04:19;20.90;92.00
47090;DHT22;32840;52.516;13.294;2022-08-21T23:07:05;20.90;92.30
47090;DHT22;32840;52.516;13.294;2022-08-21T23:09:50;20.90;92.60
47090;DHT22;32840;52.516;13.294;2022-08-21T23:12:37;20.80;93.00
47090;DHT22;32840;52.516;13.294;2022-08-21T23:15:27;20.80;93.50
47090;DHT22;32840;52.516;13.294;2022-08-21T23:34:23;20.70;95.50
47090;DHT22;32840;52.516;13.294;2022-08-21T23:40:51;20.60;96.20
47090;DHT22;32840;52.516;13.294;2022-08-21T23:43:54;20.60;96.90
47090;DHT22;32840;52.516;13.294;2022-08-21T23:47:00;20.60;96.90
47090;DHT22;32840;52.516;13.294;2022-08-21T23:50:03;20.50;97.30
